createdAt,value
2022-10-19T00:01:15.387Z,100.00
2022-10-19T00:03:44.347Z,100.00
2022-10-19T00:06:25.903Z,100.00
2022-10-19T00:09:06.790Z,100.00
2022-10-19T00:11:37.382Z,100.00
2022-10-19T00:14:05.279Z,100.00
2022-10-19T00:16:36.348Z,100.00
2022-10-19T00:19:12.229Z,100.00
2022-10-19T00:21:40.127Z,100.00
2022-10-19T00:24:08.607Z,100.00
2022-10-19T00:26:36.393Z,100.00
2022-10-19T00:29:04.897Z,100.00
2022-10-19T00:31:32.560Z,100.00
2022-10-19T00:34:00.768Z,100.00
2022-10-19T00:36:37.659Z,100.00
2022-10-19T00:39:08.242Z,100.00
2022-10-19T00:41:36.261Z,100.00
2022-10-19T00:44:15.970Z,100.00
2022-10-19T00:46:50.676Z,100.00
2022-10-19T00:49:33.029Z,100.00
2022-10-19T00:52:17.211Z,100.00
2022-10-19T00:54:47.165Z,100.00
2022-10-19T00:57:15.305Z,100.00
2022-10-19T00:59:45.740Z,100.00
2022-10-19T01:02:14.051Z,100.00
2022-10-19T01:04:49.100Z,100.00
2022-10-19T01:07:16.852Z,100.00
2022-10-19T01:09:44.151Z,100.00
2022-10-19T01:12:51.299Z,100.00
2022-10-19T01:15:24.280Z,100.00
2022-10-19T01:18:19.623Z,100.00
2022-10-19T01:21:16.986Z,100.00
2022-10-19T01:24:05.600Z,100.00
2022-10-19T01:27:19.381Z,100.00
2022-10-19T01:30:03.397Z,100.00
2022-10-19T01:32:59.436Z,100.00
2022-10-19T01:36:09.960Z,100.00
2022-10-19T01:39:24.887Z,100.00
2022-10-19T01:42:06.313Z,100.00
2022-10-19T01:44:50.780Z,100.00
2022-10-19T01:47:31.375Z,100.00
2022-10-19T01:50:22.083Z,100.00
2022-10-19T01:52:51.709Z,100.00
2022-10-19T01:55:20.173Z,100.00
2022-10-19T01:57:54.801Z,100.00
2022-10-19T02:00:23.834Z,100.00
2022-10-19T02:02:54.603Z,100.00
2022-10-19T02:05:27.055Z,100.00
2022-10-19T02:08:00.804Z,100.00
2022-10-19T02:10:31.257Z,100.00
2022-10-19T02:12:59.518Z,100.00
2022-10-19T02:15:29.556Z,100.00
2022-10-19T02:17:59.853Z,100.00
2022-10-19T02:20:28.593Z,100.00
2022-10-19T02:22:56.532Z,100.00
2022-10-19T02:25:25.203Z,100.00
2022-10-19T02:27:53.177Z,100.00
2022-10-19T02:30:22.379Z,100.00
2022-10-19T02:32:51.056Z,100.00
2022-10-19T02:35:18.752Z,100.00
2022-10-19T02:37:46.228Z,100.00
2022-10-19T02:40:14.159Z,100.00
2022-10-19T02:43:04.505Z,100.00
2022-10-19T02:45:38.152Z,100.00
2022-10-19T02:48:11.743Z,100.00
2022-10-19T02:50:43.301Z,100.00
2022-10-19T02:53:10.653Z,100.00
2022-10-19T02:55:38.301Z,100.00
2022-10-19T02:58:05.536Z,100.00
2022-10-19T03:00:32.800Z,100.00
2022-10-19T03:03:00.544Z,100.00
2022-10-19T03:05:27.774Z,100.00
2022-10-19T03:07:54.989Z,100.00
2022-10-19T03:10:22.173Z,100.00
2022-10-19T03:12:49.438Z,100.00
2022-10-19T03:15:18.489Z,100.00
2022-10-19T03:17:45.868Z,100.00
2022-10-19T03:20:16.039Z,100.00
2022-10-19T03:22:43.256Z,100.00
2022-10-19T03:25:10.629Z,100.00
2022-10-19T03:27:37.741Z,100.00
2022-10-19T03:30:05.355Z,100.00
2022-10-19T03:32:32.622Z,100.00
2022-10-19T03:34:59.895Z,100.00
2022-10-19T03:37:27.206Z,100.00
2022-10-19T03:39:54.410Z,100.00
2022-10-19T03:42:21.582Z,100.00
2022-10-19T03:44:48.809Z,100.00
2022-10-19T03:47:16.046Z,100.00
2022-10-19T03:49:43.715Z,100.00
2022-10-19T03:52:11.132Z,100.00
2022-10-19T03:54:38.629Z,100.00
2022-10-19T03:57:05.753Z,100.00
2022-10-19T03:59:32.905Z,100.00
2022-10-19T04:02:00.136Z,100.00
2022-10-19T04:04:27.727Z,100.00
2022-10-19T04:06:54.962Z,100.00
2022-10-19T04:09:23.861Z,100.00
2022-10-19T04:11:51.591Z,100.00
2022-10-19T04:14:32.526Z,100.00
2022-10-19T04:17:03.895Z,100.00
2022-10-19T04:19:32.652Z,100.00
2022-10-19T04:21:59.891Z,100.00
2022-10-19T04:24:27.356Z,100.00
2022-10-19T04:26:56.391Z,100.00
2022-10-19T04:29:29.554Z,100.00
2022-10-19T04:31:57.790Z,100.00
2022-10-19T04:34:25.290Z,100.00
2022-10-19T04:36:53.937Z,100.00
2022-10-19T04:39:21.218Z,100.00
2022-10-19T04:41:48.348Z,100.00
2022-10-19T04:44:15.813Z,100.00
2022-10-19T04:46:43.041Z,100.00
2022-10-19T04:49:10.423Z,100.00
2022-10-19T04:51:37.731Z,100.00
2022-10-19T04:54:06.129Z,100.00
2022-10-19T04:56:33.543Z,100.00
2022-10-19T04:59:01.570Z,100.00
2022-10-19T05:01:31.091Z,100.00
2022-10-19T05:04:02.092Z,100.00
2022-10-19T05:06:31.513Z,100.00
2022-10-19T05:08:59.880Z,100.00
2022-10-19T05:11:27.577Z,100.00
2022-10-19T05:13:56.708Z,100.00
2022-10-19T05:16:24.533Z,100.00
2022-10-19T05:18:59.007Z,100.00
2022-10-19T05:21:28.962Z,100.00
2022-10-19T05:23:58.039Z,100.00
2022-10-19T05:26:27.445Z,100.00
2022-10-19T05:28:57.964Z,100.00
2022-10-19T05:31:31.571Z,100.00
2022-10-19T05:34:00.134Z,100.00
2022-10-19T05:36:34.672Z,100.00
2022-10-19T05:39:06.756Z,100.00
2022-10-19T05:41:34.917Z,100.00
2022-10-19T05:44:04.587Z,100.00
2022-10-19T05:46:33.751Z,100.00
2022-10-19T05:49:01.278Z,100.00
2022-10-19T05:51:29.109Z,100.00
2022-10-19T05:53:57.524Z,100.00
2022-10-19T05:56:28.214Z,100.00
2022-10-19T05:59:05.888Z,100.00
2022-10-19T06:01:34.181Z,100.00
2022-10-19T06:04:02.929Z,100.00
2022-10-19T06:06:31.824Z,100.00
2022-10-19T06:09:00.348Z,100.00
2022-10-19T06:11:31.183Z,100.00
2022-10-19T06:14:00.926Z,100.00
2022-10-19T06:16:29.841Z,100.00
2022-10-19T06:18:58.216Z,100.00
2022-10-19T06:21:29.888Z,100.00
2022-10-19T06:24:04.151Z,100.00
2022-10-19T06:26:33.358Z,100.00
2022-10-19T06:29:01.812Z,100.00
2022-10-19T06:31:32.209Z,100.00
2022-10-19T06:33:59.526Z,100.00
2022-10-19T06:36:30.674Z,100.00
2022-10-19T06:38:59.847Z,100.00
2022-10-19T06:41:28.095Z,100.00
2022-10-19T06:43:56.510Z,100.00
2022-10-19T06:46:26.444Z,100.00
2022-10-19T06:49:00.361Z,100.00
2022-10-19T06:51:30.267Z,100.00
2022-10-19T06:53:57.803Z,100.00
2022-10-19T06:56:26.757Z,100.00
2022-10-19T06:58:54.843Z,100.00
2022-10-19T07:01:23.049Z,100.00
2022-10-19T07:03:54.268Z,100.00
2022-10-19T07:06:22.512Z,100.00
2022-10-19T07:08:50.181Z,100.00
2022-10-19T07:11:20.538Z,100.00
2022-10-19T07:13:48.087Z,100.00
2022-10-19T07:16:20.591Z,100.00
2022-10-19T07:18:51.307Z,100.00
2022-10-19T07:21:19.484Z,100.00
2022-10-19T07:23:47.642Z,100.00
2022-10-19T07:26:23.905Z,100.00
2022-10-19T07:28:52.015Z,100.00
2022-10-19T07:31:22.092Z,100.00
2022-10-19T07:33:59.115Z,100.00
2022-10-19T07:36:28.125Z,100.00
2022-10-19T07:38:56.090Z,100.00
2022-10-19T07:41:25.920Z,100.00
2022-10-19T07:43:54.539Z,100.00
2022-10-19T07:46:25.995Z,100.00
2022-10-19T07:48:53.993Z,100.00
2022-10-19T07:51:22.243Z,100.00
2022-10-19T07:53:49.975Z,100.00
2022-10-19T07:56:21.386Z,100.00
2022-10-19T07:58:51.136Z,100.00
2022-10-19T08:01:31.504Z,100.00
2022-10-19T08:06:47.589Z,100.00
2022-10-19T08:09:33.436Z,100.00
2022-10-19T08:12:02.766Z,100.00
2022-10-19T08:14:30.100Z,100.00
2022-10-19T08:16:57.720Z,100.00
2022-10-19T08:19:24.936Z,100.00
2022-10-19T08:21:52.282Z,100.00
2022-10-19T08:24:20.849Z,100.00
2022-10-19T08:26:51.217Z,100.00
2022-10-19T08:29:21.436Z,100.00
2022-10-19T08:31:49.741Z,100.00
2022-10-19T08:34:17.104Z,100.00
2022-10-19T08:36:44.638Z,100.00
2022-10-19T08:39:13.198Z,100.00
2022-10-19T08:41:40.367Z,100.00
2022-10-19T08:44:27.685Z,100.00
2022-10-19T08:47:26.651Z,100.00
2022-10-19T08:49:55.160Z,100.00
2022-10-19T08:52:34.101Z,100.00
2022-10-19T08:55:19.617Z,100.00
2022-10-19T08:58:41.394Z,100.00
2022-10-19T09:01:37.643Z,100.00
2022-10-19T09:04:35.833Z,100.00
2022-10-19T09:07:23.618Z,100.00
2022-10-19T09:10:11.144Z,100.00
2022-10-19T09:12:58.910Z,100.00
2022-10-19T09:15:47.064Z,100.00
2022-10-19T09:18:29.787Z,100.00
2022-10-19T09:21:16.242Z,100.00
2022-10-19T09:24:16.216Z,100.00
2022-10-19T09:26:58.628Z,100.00
2022-10-19T09:29:42.251Z,100.00
2022-10-19T09:32:23.741Z,100.00
2022-10-19T09:35:06.492Z,100.00
2022-10-19T09:37:43.195Z,100.00
2022-10-19T09:40:20.223Z,100.00
2022-10-19T09:42:51.348Z,100.00
2022-10-19T09:45:23.911Z,100.00
2022-10-19T09:47:51.206Z,100.00
2022-10-19T09:50:27.454Z,100.00
2022-10-19T09:53:05.288Z,100.00
2022-10-19T09:55:47.116Z,100.00
2022-10-19T09:58:14.251Z,100.00
2022-10-19T10:00:46.427Z,100.00
2022-10-19T10:03:36.610Z,90.09
2022-10-19T10:06:09.095Z,84.15
2022-10-19T10:08:40.185Z,81.07
2022-10-19T10:11:16.265Z,67.50
2022-10-19T10:13:49.636Z,66.99
2022-10-19T10:16:20.603Z,67.51
2022-10-19T10:19:15.799Z,51.33
2022-10-19T10:21:55.800Z,55.38
2022-10-19T10:24:26.645Z,57.19
2022-10-19T10:26:58.504Z,57.83
2022-10-19T10:29:39.105Z,58.60
2022-10-19T10:32:19.754Z,60.26
2022-10-19T10:35:04.005Z,60.53
2022-10-19T10:37:37.260Z,62.30
2022-10-19T10:40:06.602Z,59.68
2022-10-19T10:42:42.787Z,58.92
2022-10-19T10:45:34.061Z,61.14
2022-10-19T10:48:28.417Z,61.47
2022-10-19T10:50:57.823Z,62.85
2022-10-19T10:53:44.059Z,64.12
2022-10-19T10:56:27.492Z,67.38
2022-10-19T10:59:05.785Z,67.76
2022-10-19T11:01:44.885Z,66.46
2022-10-19T11:04:20.749Z,65.79
2022-10-19T11:07:05.258Z,66.15
2022-10-19T11:09:42.681Z,67.09
2022-10-19T11:12:19.246Z,64.60
2022-10-19T11:14:51.384Z,63.00
2022-10-19T11:17:33.060Z,60.42
2022-10-19T11:20:01.010Z,50.30
2022-10-19T11:22:44.385Z,47.24
2022-10-19T11:25:59.937Z,51.96
2022-10-19T11:29:17.988Z,54.26
2022-10-19T11:31:54.027Z,59.16
2022-10-19T11:34:48.812Z,61.58
2022-10-19T11:38:19.439Z,62.08
2022-10-19T11:41:43.790Z,64.72
2022-10-19T11:44:38.628Z,63.17
2022-10-19T11:47:36.613Z,63.04
2022-10-19T11:50:16.873Z,64.05
2022-10-19T11:53:40.120Z,63.34
2022-10-19T11:57:11.352Z,63.42
2022-10-19T12:00:03.672Z,64.22
2022-10-19T12:03:03.399Z,62.26
2022-10-19T12:06:03.477Z,62.82
2022-10-19T12:08:51.156Z,64.34
2022-10-19T12:12:07.408Z,63.66
2022-10-19T12:14:42.404Z,65.01
2022-10-19T12:17:15.892Z,64.77
2022-10-19T12:19:49.112Z,66.27
2022-10-19T12:22:26.935Z,65.26
2022-10-19T12:24:58.495Z,66.51
2022-10-19T12:27:33.327Z,65.00
2022-10-19T12:30:17.010Z,65.85
2022-10-19T12:33:02.016Z,65.87
2022-10-19T12:36:13.762Z,65.06
2022-10-19T12:38:49.449Z,65.24
2022-10-19T12:41:56.510Z,64.46
2022-10-19T12:45:05.698Z,64.86
2022-10-19T12:47:33.612Z,65.13
2022-10-19T12:50:01.272Z,66.08
2022-10-19T12:52:49.017Z,64.14
2022-10-19T12:55:16.067Z,63.08
2022-10-19T12:57:56.115Z,64.43
2022-10-19T13:00:30.379Z,63.33
2022-10-19T13:03:05.759Z,63.71
2022-10-19T13:05:35.231Z,61.08
2022-10-19T13:08:06.964Z,61.17
2022-10-19T13:10:36.782Z,61.56
2022-10-19T13:13:04.744Z,61.62
2022-10-19T13:15:37.697Z,62.15
2022-10-19T13:18:14.439Z,63.69
2022-10-19T13:20:52.967Z,63.61
2022-10-19T13:23:29.019Z,65.02
2022-10-19T13:26:33.573Z,64.71
2022-10-19T13:29:01.765Z,65.65
2022-10-19T13:31:33.095Z,66.70
2022-10-19T13:34:00.527Z,65.21
2022-10-19T13:36:27.927Z,65.53
2022-10-19T13:39:03.040Z,66.35
2022-10-19T13:41:39.356Z,66.97
2022-10-19T13:44:15.341Z,65.38
2022-10-19T13:46:45.092Z,67.43
2022-10-19T13:49:56.260Z,66.65
2022-10-19T13:53:03.247Z,65.86
2022-10-19T13:55:51.713Z,65.28
2022-10-19T13:58:42.904Z,64.69
2022-10-19T14:01:48.199Z,65.28
2022-10-19T14:04:51.375Z,68.50
2022-10-19T14:07:32.427Z,70.19
2022-10-19T14:10:08.428Z,70.42
2022-10-19T14:12:39.729Z,72.02
2022-10-19T14:15:28.044Z,71.91
2022-10-19T14:17:56.778Z,73.07
2022-10-19T14:20:37.135Z,74.46
2022-10-19T14:23:40.278Z,75.36
2022-10-19T14:26:24.169Z,75.13
2022-10-19T14:28:57.468Z,76.07
2022-10-19T14:31:33.940Z,76.89
2022-10-19T14:34:07.665Z,78.48
2022-10-19T14:36:44.243Z,79.41
2022-10-19T14:40:08.714Z,81.12
2022-10-19T14:42:45.709Z,80.41
2022-10-19T14:45:27.419Z,81.51
2022-10-19T14:48:18.324Z,82.94
2022-10-19T14:50:55.532Z,84.25
2022-10-19T14:53:39.926Z,83.86
2022-10-19T14:56:23.405Z,84.56
2022-10-19T14:59:14.257Z,84.56
2022-10-19T15:01:48.612Z,84.27
2022-10-19T15:04:29.125Z,84.96
2022-10-19T15:06:57.224Z,85.60
2022-10-19T15:09:37.555Z,86.60
2022-10-19T15:12:19.512Z,85.87
2022-10-19T15:14:48.775Z,86.91
2022-10-19T15:17:31.664Z,86.24
2022-10-19T15:20:01.588Z,86.39
2022-10-19T15:22:32.378Z,86.48
2022-10-19T15:25:01.969Z,87.04
2022-10-19T15:27:33.760Z,89.19
2022-10-19T15:30:28.137Z,89.94
2022-10-19T15:33:14.248Z,90.27
2022-10-19T15:35:44.955Z,89.79
2022-10-19T15:38:25.900Z,89.89
2022-10-19T15:41:02.511Z,91.62
2022-10-19T15:43:35.919Z,92.06
2022-10-19T15:46:26.394Z,93.42
2022-10-19T15:48:56.427Z,94.18
2022-10-19T15:51:23.948Z,94.10
2022-10-19T15:54:10.080Z,93.49
2022-10-19T15:56:40.349Z,94.09
2022-10-19T15:59:20.037Z,94.79
2022-10-19T16:01:53.681Z,93.54
2022-10-19T16:04:22.360Z,96.08
2022-10-19T16:06:49.649Z,93.75
2022-10-19T16:09:20.812Z,95.78
2022-10-19T16:11:48.811Z,96.60
2022-10-19T16:16:44.768Z,95.54
2022-10-19T16:19:12.433Z,97.08
2022-10-19T16:21:40.228Z,98.37
2022-10-19T16:24:07.945Z,96.58
2022-10-19T16:26:35.606Z,97.64
2022-10-19T16:29:03.349Z,98.92
2022-10-19T16:31:31.710Z,98.36
2022-10-19T16:33:59.007Z,98.10
2022-10-19T16:36:26.338Z,97.58
2022-10-19T16:38:53.825Z,97.18
2022-10-19T16:41:21.262Z,98.99
2022-10-19T16:43:53.616Z,100.00
2022-10-19T16:46:23.021Z,99.46
2022-10-19T16:48:50.777Z,100.00
2022-10-19T16:51:42.036Z,100.00
2022-10-19T16:54:11.750Z,100.00
2022-10-19T16:56:45.953Z,100.00
2022-10-19T16:59:16.775Z,100.00
2022-10-19T17:01:45.147Z,100.00
2022-10-19T17:04:14.933Z,100.00
2022-10-19T17:06:42.625Z,100.00
2022-10-19T17:11:57.978Z,100.00
2022-10-19T17:14:25.376Z,100.00
2022-10-19T17:16:52.773Z,100.00
2022-10-19T17:19:20.087Z,100.00
2022-10-19T17:21:49.385Z,100.00
2022-10-19T17:24:22.048Z,100.00
2022-10-19T17:26:53.613Z,100.00
2022-10-19T17:29:22.677Z,100.00
2022-10-19T17:31:50.515Z,100.00
2022-10-19T17:34:18.482Z,100.00
2022-10-19T17:36:46.852Z,100.00
2022-10-19T17:39:18.299Z,100.00
2022-10-19T17:41:48.355Z,100.00
2022-10-19T17:44:17.107Z,100.00
2022-10-19T17:46:45.025Z,100.00
2022-10-19T17:49:13.545Z,100.00
2022-10-19T17:51:41.367Z,100.00
2022-10-19T17:54:13.450Z,100.00
2022-10-19T17:56:45.241Z,100.00
2022-10-19T17:59:14.228Z,100.00
2022-10-19T18:01:41.733Z,100.00
2022-10-19T18:04:09.094Z,100.00
2022-10-19T18:06:38.094Z,100.00
2022-10-19T18:09:09.315Z,100.00
2022-10-19T18:11:41.698Z,100.00
2022-10-19T18:14:12.584Z,100.00
2022-10-19T18:16:45.401Z,100.00
2022-10-19T18:19:15.976Z,100.00
2022-10-19T18:21:46.042Z,100.00
2022-10-19T18:24:19.522Z,100.00
2022-10-19T18:26:48.843Z,100.00
2022-10-19T18:29:21.055Z,100.00
2022-10-19T18:31:51.649Z,100.00
2022-10-19T18:34:22.130Z,100.00
2022-10-19T18:36:50.148Z,100.00
2022-10-19T18:39:18.832Z,100.00
2022-10-19T18:41:46.419Z,100.00
2022-10-19T18:44:14.206Z,100.00
2022-10-19T18:46:41.742Z,100.00
2022-10-19T18:49:11.440Z,100.00
2022-10-19T18:51:39.546Z,100.00
2022-10-19T18:54:06.859Z,100.00
2022-10-19T18:56:36.623Z,100.00
2022-10-19T18:59:05.394Z,100.00
2022-10-19T19:01:33.358Z,100.00
2022-10-19T19:04:09.135Z,100.00
2022-10-19T19:06:38.092Z,100.00
2022-10-19T19:09:10.256Z,100.00
2022-10-19T19:11:41.202Z,100.00
2022-10-19T19:14:18.321Z,100.00
2022-10-19T19:16:46.148Z,100.00
2022-10-19T19:19:16.346Z,100.00
2022-10-19T19:21:45.286Z,100.00
2022-10-19T19:24:17.384Z,100.00
2022-10-19T19:26:53.457Z,100.00
2022-10-19T19:29:21.930Z,100.00
2022-10-19T19:31:49.661Z,100.00
2022-10-19T19:34:18.209Z,100.00
2022-10-19T19:36:49.116Z,100.00
2022-10-19T19:39:20.515Z,100.00
2022-10-19T19:41:49.482Z,100.00
2022-10-19T19:44:17.394Z,100.00
2022-10-19T19:46:44.849Z,100.00
2022-10-19T19:49:12.615Z,100.00
2022-10-19T19:51:40.217Z,100.00
2022-10-19T19:54:07.866Z,100.00
2022-10-19T19:56:37.267Z,100.00
2022-10-19T19:59:04.619Z,100.00
2022-10-19T20:01:32.999Z,100.00
2022-10-19T20:06:37.486Z,100.00
2022-10-19T20:09:06.748Z,100.00
2022-10-19T20:11:36.207Z,100.00
2022-10-19T20:14:07.082Z,100.00
2022-10-19T20:16:34.465Z,100.00
2022-10-19T20:19:08.719Z,100.00
2022-10-19T20:21:36.705Z,100.00
2022-10-19T20:24:04.606Z,100.00
2022-10-19T20:26:32.234Z,100.00
2022-10-19T20:29:02.122Z,100.00
2022-10-19T20:31:31.491Z,100.00
2022-10-19T20:33:58.936Z,100.00
2022-10-19T20:36:27.087Z,100.00
2022-10-19T20:38:58.388Z,100.00
2022-10-19T20:41:28.443Z,100.00
2022-10-19T20:43:56.402Z,100.00
2022-10-19T20:46:27.736Z,100.00
2022-10-19T20:48:59.880Z,100.00
2022-10-19T20:51:33.564Z,100.00
2022-10-19T20:54:03.600Z,100.00
2022-10-19T20:56:33.916Z,100.00
2022-10-19T20:59:08.052Z,100.00
2022-10-19T21:01:37.875Z,100.00
2022-10-19T21:04:08.338Z,100.00
2022-10-19T21:06:41.491Z,100.00
2022-10-19T21:09:10.270Z,100.00
2022-10-19T21:11:41.059Z,100.00
2022-10-19T21:14:37.211Z,100.00
2022-10-19T21:17:04.361Z,100.00
2022-10-19T21:19:31.827Z,100.00
2022-10-19T21:22:02.545Z,100.00
2022-10-19T21:24:35.273Z,100.00
2022-10-19T21:27:07.574Z,100.00
2022-10-19T21:29:36.161Z,100.00
2022-10-19T21:32:04.089Z,100.00
2022-10-19T21:34:32.151Z,100.00
2022-10-19T21:37:00.281Z,100.00
2022-10-19T21:39:27.718Z,100.00
2022-10-19T21:41:55.276Z,100.00
2022-10-19T21:44:23.249Z,100.00
2022-10-19T21:46:51.136Z,100.00
2022-10-19T21:49:18.750Z,100.00
2022-10-19T21:51:53.930Z,100.00
2022-10-19T21:54:25.068Z,100.00
2022-10-19T21:56:53.448Z,100.00
2022-10-19T21:59:20.972Z,100.00
2022-10-19T22:01:48.532Z,100.00
2022-10-19T22:04:18.269Z,100.00
2022-10-19T22:06:45.642Z,100.00
2022-10-19T22:09:19.869Z,100.00
2022-10-19T22:11:47.685Z,100.00
2022-10-19T22:14:16.604Z,100.00
2022-10-19T22:16:44.953Z,100.00
2022-10-19T22:19:13.089Z,100.00
2022-10-19T22:21:40.850Z,100.00
2022-10-19T22:24:13.632Z,100.00
2022-10-19T22:26:45.565Z,100.00
2022-10-19T22:29:13.251Z,100.00
2022-10-19T22:31:40.748Z,100.00
2022-10-19T22:34:12.182Z,100.00
2022-10-19T22:36:39.449Z,100.00
2022-10-19T22:39:07.749Z,100.00
2022-10-19T22:41:35.074Z,100.00
2022-10-19T22:44:02.518Z,100.00
2022-10-19T22:46:29.863Z,100.00
2022-10-19T22:48:57.146Z,100.00
2022-10-19T22:51:24.375Z,100.00
2022-10-19T22:53:51.611Z,100.00
2022-10-19T22:56:18.803Z,100.00
2022-10-19T22:58:46.098Z,100.00
2022-10-19T23:01:15.894Z,100.00
2022-10-19T23:03:43.606Z,100.00
2022-10-19T23:06:14.069Z,100.00
2022-10-19T23:08:42.327Z,100.00
2022-10-19T23:11:09.600Z,100.00
2022-10-19T23:13:37.281Z,100.00
2022-10-19T23:16:04.971Z,100.00
2022-10-19T23:18:37.006Z,100.00
2022-10-19T23:21:08.075Z,100.00
2022-10-19T23:23:37.075Z,100.00
2022-10-19T23:26:11.248Z,100.00
2022-10-19T23:28:40.583Z,100.00
2022-10-19T23:31:10.386Z,100.00
2022-10-19T23:33:37.873Z,100.00
2022-10-19T23:36:22.618Z,100.00
2022-10-19T23:38:51.473Z,100.00
2022-10-19T23:41:20.226Z,100.00
2022-10-19T23:43:48.461Z,100.00
2022-10-19T23:46:16.218Z,100.00
2022-10-19T23:48:43.844Z,100.00
2022-10-19T23:51:15.865Z,100.00
2022-10-19T23:53:46.163Z,100.00
2022-10-19T23:56:23.450Z,100.00
2022-10-19T23:58:52.099Z,100.00
